createdAt,value
2022-10-20T00:01:18.093Z,12.80
2022-10-20T00:03:45.835Z,12.90
2022-10-20T00:06:16.213Z,12.80
2022-10-20T00:08:44.325Z,12.90
2022-10-20T00:11:13.448Z,12.90
2022-10-20T00:13:41.976Z,12.90
2022-10-20T00:16:09.625Z,12.80
2022-10-20T00:18:36.624Z,12.90
2022-10-20T00:21:10.473Z,12.90
2022-10-20T00:23:37.445Z,12.90
2022-10-20T00:26:11.679Z,12.80
2022-10-20T00:28:38.661Z,12.80
2022-10-20T00:31:07.113Z,12.80
2022-10-20T00:33:34.776Z,12.80
2022-10-20T00:36:05.558Z,12.80
2022-10-20T00:38:33.026Z,12.70
2022-10-20T00:41:00.315Z,12.60
2022-10-20T00:43:57.290Z,12.60
2022-10-20T00:46:39.856Z,12.50
2022-10-20T00:49:36.155Z,12.50
2022-10-20T00:52:03.237Z,12.50
2022-10-20T00:54:30.939Z,12.50
2022-10-20T00:56:59.600Z,12.60
2022-10-20T00:59:32.189Z,12.60
2022-10-20T01:02:01.670Z,12.60
2022-10-20T01:04:31.522Z,12.70
2022-10-20T01:06:59.369Z,12.70
2022-10-20T01:09:26.730Z,12.80
2022-10-20T01:12:20.476Z,12.80
2022-10-20T01:15:17.835Z,12.80
2022-10-20T01:18:13.285Z,12.80
2022-10-20T01:21:27.431Z,12.70
2022-10-20T01:24:57.628Z,12.70
2022-10-20T01:27:33.123Z,12.70
2022-10-20T01:30:19.043Z,12.70
2022-10-20T01:33:04.365Z,12.70
2022-10-20T01:35:52.457Z,12.70
2022-10-20T01:38:25.304Z,12.60
2022-10-20T01:41:06.027Z,12.70
2022-10-20T01:43:37.975Z,12.70
2022-10-20T01:46:07.202Z,12.70
2022-10-20T01:48:36.048Z,12.80
2022-10-20T01:51:04.370Z,12.80
2022-10-20T01:53:31.365Z,12.80
2022-10-20T01:56:00.859Z,12.80
2022-10-20T01:59:08.066Z,12.80
2022-10-20T02:02:11.581Z,12.80
2022-10-20T02:05:07.754Z,12.70
2022-10-20T02:07:35.634Z,12.80
2022-10-20T02:10:25.726Z,12.80
2022-10-20T02:12:59.071Z,12.80
2022-10-20T02:15:28.231Z,12.80
2022-10-20T02:18:02.867Z,12.80
2022-10-20T02:20:31.635Z,12.70
2022-10-20T02:23:00.345Z,12.70
2022-10-20T02:25:29.867Z,12.60
2022-10-20T02:30:31.496Z,12.50
2022-10-20T02:32:58.399Z,12.50
2022-10-20T02:35:33.036Z,12.40
2022-10-20T02:38:01.163Z,12.40
2022-10-20T02:40:28.686Z,12.30
2022-10-20T02:42:55.708Z,12.20
2022-10-20T02:45:22.619Z,12.20
2022-10-20T02:47:49.516Z,12.20
2022-10-20T02:50:17.134Z,12.10
2022-10-20T02:52:44.096Z,12.00
2022-10-20T02:55:11.092Z,12.00
2022-10-20T02:57:38.510Z,11.90
2022-10-20T03:00:08.092Z,11.90
2022-10-20T03:02:35.056Z,11.90
2022-10-20T03:05:02.074Z,11.90
2022-10-20T03:07:29.027Z,11.90
2022-10-20T03:09:55.990Z,12.00
2022-10-20T03:12:22.938Z,12.00
2022-10-20T03:14:49.856Z,12.00
2022-10-20T03:17:16.807Z,12.00
2022-10-20T03:19:43.748Z,11.90
2022-10-20T03:22:10.776Z,11.90
2022-10-20T03:24:37.846Z,11.80
2022-10-20T03:27:04.771Z,11.70
2022-10-20T03:29:31.870Z,11.70
2022-10-20T03:31:58.994Z,11.70
2022-10-20T03:34:26.197Z,11.60
2022-10-20T03:36:53.484Z,11.60
2022-10-20T03:39:20.511Z,11.50
2022-10-20T03:41:47.692Z,11.50
2022-10-20T03:44:14.847Z,11.40
2022-10-20T03:46:41.838Z,11.40
2022-10-20T03:49:08.861Z,11.30
2022-10-20T03:51:35.984Z,11.30
2022-10-20T03:54:02.974Z,11.30
2022-10-20T03:56:30.106Z,11.30
2022-10-20T03:58:57.173Z,11.30
2022-10-20T04:01:30.762Z,11.40
2022-10-20T04:03:58.267Z,11.40
2022-10-20T04:06:25.216Z,11.50
2022-10-20T04:08:52.148Z,11.50
2022-10-20T04:11:19.130Z,11.50
2022-10-20T04:13:46.090Z,11.60
2022-10-20T04:16:13.030Z,11.60
2022-10-20T04:18:39.974Z,11.70
2022-10-20T04:21:06.921Z,11.70
2022-10-20T04:23:33.832Z,11.70
2022-10-20T04:26:00.828Z,11.70
2022-10-20T04:28:27.757Z,11.70
2022-10-20T04:30:54.812Z,11.70
2022-10-20T04:33:21.728Z,11.60
2022-10-20T04:38:20.422Z,11.70
2022-10-20T04:40:57.155Z,11.70
2022-10-20T04:43:25.937Z,11.70
2022-10-20T04:45:59.900Z,11.60
2022-10-20T04:48:28.534Z,11.60
2022-10-20T04:51:06.649Z,11.60
2022-10-20T04:53:33.824Z,11.70
2022-10-20T04:56:01.192Z,11.70
2022-10-20T04:58:28.462Z,11.70
2022-10-20T05:01:01.136Z,11.60
2022-10-20T05:03:28.064Z,11.60
2022-10-20T05:05:55.029Z,11.60
2022-10-20T05:08:21.901Z,11.60
2022-10-20T05:10:48.820Z,11.70
2022-10-20T05:13:15.753Z,11.70
2022-10-20T05:15:42.742Z,11.70
2022-10-20T05:18:09.631Z,11.70
2022-10-20T05:20:41.212Z,11.80
2022-10-20T05:23:18.312Z,11.90
2022-10-20T05:25:45.245Z,11.90
2022-10-20T05:28:12.287Z,12.10
2022-10-20T05:30:39.443Z,12.20
2022-10-20T05:33:06.409Z,12.30
2022-10-20T05:35:33.323Z,12.30
2022-10-20T05:38:00.415Z,12.40
2022-10-20T05:40:27.362Z,12.40
2022-10-20T05:42:54.468Z,12.50
2022-10-20T05:45:21.411Z,12.50
2022-10-20T05:47:48.300Z,12.60
2022-10-20T05:50:15.257Z,12.60
2022-10-20T05:52:42.202Z,12.60
2022-10-20T05:55:09.981Z,12.60
2022-10-20T05:57:36.905Z,12.70
2022-10-20T06:00:05.541Z,12.70
2022-10-20T06:02:32.513Z,12.70
2022-10-20T06:04:59.443Z,12.70
2022-10-20T06:07:26.436Z,12.80
2022-10-20T06:09:53.410Z,12.80
2022-10-20T06:12:20.506Z,12.80
2022-10-20T06:14:47.397Z,12.80
2022-10-20T06:17:14.312Z,12.80
2022-10-20T06:19:41.256Z,12.80
2022-10-20T06:22:08.204Z,12.90
2022-10-20T06:24:35.408Z,12.90
2022-10-20T06:27:02.312Z,13.00
2022-10-20T06:29:29.258Z,13.00
2022-10-20T06:31:56.859Z,13.10
2022-10-20T06:34:25.210Z,13.10
2022-10-20T06:36:52.820Z,13.10
2022-10-20T06:39:24.177Z,13.10
2022-10-20T06:41:54.024Z,13.10
2022-10-20T06:44:23.999Z,13.20
2022-10-20T06:46:54.600Z,13.20
2022-10-20T06:49:22.280Z,13.30
2022-10-20T06:51:50.368Z,13.40
2022-10-20T06:54:17.656Z,13.40
2022-10-20T06:56:44.686Z,13.50
2022-10-20T06:59:12.063Z,13.50
2022-10-20T07:01:39.756Z,13.60
2022-10-20T07:04:11.762Z,13.60
2022-10-20T07:06:41.631Z,13.70
2022-10-20T07:09:18.148Z,13.80
2022-10-20T07:11:45.474Z,14.00
2022-10-20T07:14:14.009Z,14.10
2022-10-20T07:16:41.454Z,14.10
2022-10-20T07:19:08.416Z,14.10
2022-10-20T07:21:38.351Z,14.20
2022-10-20T07:24:09.526Z,14.20
2022-10-20T07:26:40.076Z,14.30
2022-10-20T07:29:07.580Z,14.50
2022-10-20T07:31:43.056Z,14.70
2022-10-20T07:34:25.097Z,14.80
2022-10-20T07:36:53.706Z,14.90
2022-10-20T07:39:22.307Z,15.00
2022-10-20T07:41:49.538Z,15.10
2022-10-20T07:44:17.472Z,15.10
2022-10-20T07:46:45.108Z,15.10
2022-10-20T07:51:59.120Z,15.20
2022-10-20T07:54:26.104Z,15.20
2022-10-20T07:56:53.146Z,15.20
2022-10-20T07:59:20.102Z,15.20
2022-10-20T08:01:47.437Z,15.20
2022-10-20T08:04:14.439Z,15.30
2022-10-20T08:06:41.446Z,15.40
2022-10-20T08:09:08.506Z,15.40
2022-10-20T08:11:39.251Z,15.40
2022-10-20T08:14:06.275Z,15.50
2022-10-20T08:16:42.962Z,15.50
2022-10-20T08:19:15.748Z,15.50
2022-10-20T08:21:42.643Z,15.50
2022-10-20T08:24:09.663Z,15.60
2022-10-20T08:26:36.560Z,15.60
2022-10-20T08:29:03.561Z,15.60
2022-10-20T08:31:30.456Z,15.60
2022-10-20T08:33:57.415Z,15.70
2022-10-20T08:36:24.658Z,15.70
2022-10-20T08:38:51.725Z,15.70
2022-10-20T08:41:23.339Z,15.70
2022-10-20T08:43:54.492Z,15.80
2022-10-20T08:46:34.523Z,15.80
2022-10-20T08:49:04.076Z,15.80
2022-10-20T08:51:37.244Z,15.90
2022-10-20T08:54:12.115Z,15.80
2022-10-20T08:56:39.150Z,15.80
2022-10-20T08:59:29.935Z,15.80
2022-10-20T09:01:58.343Z,15.80
2022-10-20T09:04:38.037Z,15.80
2022-10-20T09:07:38.553Z,15.80
2022-10-20T09:10:56.330Z,15.90
2022-10-20T09:13:32.499Z,15.90
2022-10-20T09:16:06.139Z,16.00
2022-10-20T09:18:34.594Z,16.00
2022-10-20T09:21:21.630Z,16.10
2022-10-20T09:24:04.054Z,16.20
2022-10-20T09:29:39.101Z,16.80
2022-10-20T09:32:51.165Z,16.90
2022-10-20T09:35:32.326Z,16.90
2022-10-20T09:38:10.601Z,17.40
2022-10-20T09:40:45.702Z,17.70
2022-10-20T09:43:18.384Z,17.70
2022-10-20T09:45:58.722Z,17.50
2022-10-20T09:48:40.036Z,17.30
2022-10-20T09:51:28.213Z,17.10
2022-10-20T09:54:08.276Z,16.90
2022-10-20T09:56:41.698Z,16.80
2022-10-20T09:59:36.554Z,16.70
2022-10-20T10:02:14.360Z,16.60
2022-10-20T10:04:48.310Z,16.60
2022-10-20T10:07:27.492Z,16.60
2022-10-20T10:10:17.976Z,16.60
2022-10-20T10:12:56.638Z,16.60
2022-10-20T10:15:23.543Z,16.70
2022-10-20T10:17:51.297Z,16.70
2022-10-20T10:20:18.106Z,16.70
2022-10-20T10:22:45.198Z,16.90
2022-10-20T10:25:25.432Z,17.10
2022-10-20T10:28:08.922Z,17.40
2022-10-20T10:30:39.032Z,17.80
2022-10-20T10:33:29.072Z,18.00
2022-10-20T10:35:56.923Z,18.10
2022-10-20T10:38:23.968Z,18.00
2022-10-20T10:41:19.984Z,18.10
2022-10-20T10:44:00.492Z,18.20
2022-10-20T10:46:37.010Z,18.40
2022-10-20T10:49:31.341Z,18.40
2022-10-20T10:52:13.146Z,18.50
2022-10-20T10:55:43.647Z,18.60
2022-10-20T10:58:43.152Z,18.50
2022-10-20T11:01:40.455Z,18.60
2022-10-20T11:04:40.586Z,18.60
2022-10-20T11:07:25.852Z,18.50
2022-10-20T11:10:13.034Z,18.40
2022-10-20T11:13:01.268Z,18.40
2022-10-20T11:15:43.648Z,18.60
2022-10-20T11:18:31.950Z,18.80
2022-10-20T11:21:37.403Z,19.00
2022-10-20T11:24:26.493Z,19.10
2022-10-20T11:27:03.296Z,19.10
2022-10-20T11:29:34.423Z,19.30
2022-10-20T11:32:12.383Z,19.60
2022-10-20T11:35:03.331Z,19.70
2022-10-20T11:37:41.424Z,19.80
2022-10-20T11:40:11.347Z,20.00
2022-10-20T11:42:52.972Z,20.00
2022-10-20T11:45:49.976Z,19.90
2022-10-20T11:48:49.756Z,19.80
2022-10-20T11:51:31.934Z,19.90
2022-10-20T11:54:16.920Z,20.00
2022-10-20T11:57:04.351Z,20.10
2022-10-20T11:59:42.948Z,20.30
2022-10-20T12:02:30.911Z,20.30
2022-10-20T12:05:51.355Z,20.20
2022-10-20T12:08:39.913Z,20.30
2022-10-20T12:11:30.320Z,20.20
2022-10-20T12:14:15.132Z,20.30
2022-10-20T12:16:54.168Z,20.50
2022-10-20T12:19:36.100Z,20.90
2022-10-20T12:22:13.857Z,21.00
2022-10-20T12:24:42.921Z,20.70
2022-10-20T12:27:09.788Z,20.30
2022-10-20T12:29:36.615Z,20.00
2022-10-20T12:32:24.008Z,19.80
2022-10-20T12:34:58.220Z,19.70
2022-10-20T12:37:25.053Z,20.00
2022-10-20T12:39:55.296Z,20.00
2022-10-20T12:42:31.840Z,20.10
2022-10-20T12:45:07.796Z,20.30
2022-10-20T12:47:37.373Z,20.40
2022-10-20T12:50:40.611Z,20.50
2022-10-20T12:53:24.557Z,20.50
2022-10-20T12:56:10.729Z,20.50
2022-10-20T12:58:40.841Z,20.70
2022-10-20T13:01:10.247Z,20.80
2022-10-20T13:03:46.837Z,20.80
2022-10-20T13:06:22.790Z,21.00
2022-10-20T13:09:07.231Z,21.20
2022-10-20T13:11:40.859Z,21.20
2022-10-20T13:14:14.130Z,21.20
2022-10-20T13:16:51.279Z,21.20
2022-10-20T13:19:30.602Z,21.20
2022-10-20T13:21:57.939Z,21.10
2022-10-20T13:24:33.785Z,21.10
2022-10-20T13:27:04.298Z,21.10
2022-10-20T13:29:39.742Z,21.00
2022-10-20T13:32:33.145Z,21.00
2022-10-20T13:35:28.127Z,21.00
2022-10-20T13:38:31.600Z,21.00
2022-10-20T13:41:23.755Z,21.00
2022-10-20T13:44:09.866Z,20.90
2022-10-20T13:46:51.835Z,20.90
2022-10-20T13:49:59.423Z,20.90
2022-10-20T13:52:33.223Z,20.90
2022-10-20T13:55:05.049Z,21.00
2022-10-20T13:57:34.214Z,20.90
2022-10-20T14:00:18.469Z,20.90
2022-10-20T14:03:00.666Z,20.90
2022-10-20T14:05:31.574Z,20.80
2022-10-20T14:08:04.745Z,20.70
2022-10-20T14:10:54.018Z,20.80
2022-10-20T14:13:26.737Z,20.90
2022-10-20T14:16:04.297Z,20.90
2022-10-20T14:18:39.349Z,20.90
2022-10-20T14:21:18.351Z,20.80
2022-10-20T14:23:48.780Z,20.60
2022-10-20T14:26:21.390Z,20.50
2022-10-20T14:28:51.476Z,20.50
2022-10-20T14:31:22.625Z,20.50
2022-10-20T14:33:54.062Z,20.70
2022-10-20T14:36:28.695Z,20.80
2022-10-20T14:39:00.599Z,20.90
2022-10-20T14:41:35.874Z,20.80
2022-10-20T14:44:10.105Z,20.80
2022-10-20T14:46:41.634Z,20.80
2022-10-20T14:49:27.890Z,20.80
2022-10-20T14:52:05.218Z,20.60
2022-10-20T14:54:36.651Z,20.60
2022-10-20T14:57:10.169Z,20.60
2022-10-20T15:00:03.930Z,20.50
2022-10-20T15:02:40.541Z,20.50
2022-10-20T15:05:26.098Z,20.40
2022-10-20T15:07:55.906Z,20.50
2022-10-20T15:10:26.145Z,20.50
2022-10-20T15:12:55.718Z,20.40
2022-10-20T15:15:29.392Z,20.40
2022-10-20T15:18:18.740Z,20.40
2022-10-20T15:20:47.887Z,20.40
2022-10-20T15:23:17.940Z,20.30
2022-10-20T15:26:03.084Z,20.30
2022-10-20T15:28:48.367Z,20.20
2022-10-20T15:31:25.709Z,20.20
2022-10-20T15:33:54.646Z,20.10
2022-10-20T15:36:31.819Z,20.20
2022-10-20T15:39:00.041Z,20.20
2022-10-20T15:41:35.092Z,20.20
2022-10-20T15:44:19.651Z,20.20
2022-10-20T15:46:46.918Z,20.20
2022-10-20T15:49:14.373Z,20.20
2022-10-20T15:51:45.241Z,20.20
2022-10-20T15:54:16.725Z,20.20
2022-10-20T15:56:44.254Z,20.20
2022-10-20T15:59:11.449Z,20.20
2022-10-20T16:01:38.644Z,20.20
2022-10-20T16:04:28.718Z,20.20
2022-10-20T16:06:58.996Z,20.00
2022-10-20T16:09:27.390Z,19.90
2022-10-20T16:11:54.491Z,19.80
2022-10-20T16:14:21.466Z,19.70
2022-10-20T16:16:48.606Z,19.60
2022-10-20T16:19:15.654Z,19.50
2022-10-20T16:21:42.841Z,19.40
2022-10-20T16:24:11.137Z,19.30
2022-10-20T16:26:38.042Z,19.20
2022-10-20T16:29:04.933Z,19.10
2022-10-20T16:31:31.838Z,19.10
2022-10-20T16:34:00.320Z,19.00
2022-10-20T16:36:27.425Z,18.90
2022-10-20T16:38:57.848Z,18.80
2022-10-20T16:41:24.878Z,18.70
2022-10-20T16:43:52.132Z,18.60
2022-10-20T16:46:19.138Z,18.50
2022-10-20T16:48:47.835Z,18.40
2022-10-20T16:51:16.388Z,18.40
2022-10-20T16:53:43.564Z,18.30
2022-10-20T16:56:10.964Z,18.20
2022-10-20T16:58:39.064Z,18.20
2022-10-20T17:01:13.421Z,18.10
2022-10-20T17:03:51.628Z,18.10
2022-10-20T17:06:22.431Z,18.00
2022-10-20T17:08:49.609Z,17.90
2022-10-20T17:11:21.614Z,17.80
2022-10-20T17:13:48.654Z,17.70
2022-10-20T17:16:28.442Z,17.70
2022-10-20T17:18:57.746Z,17.60
2022-10-20T17:21:25.647Z,17.60
2022-10-20T17:23:52.600Z,17.50
2022-10-20T17:26:23.121Z,17.40
2022-10-20T17:28:52.131Z,17.30
2022-10-20T17:31:19.321Z,17.20
2022-10-20T17:33:47.252Z,17.20
2022-10-20T17:36:15.248Z,17.10
2022-10-20T17:38:43.198Z,17.10
2022-10-20T17:41:13.353Z,17.00
2022-10-20T17:43:40.653Z,17.00
2022-10-20T17:46:17.873Z,17.10
2022-10-20T17:48:45.682Z,17.10
2022-10-20T17:51:26.875Z,17.10
2022-10-20T17:53:58.076Z,17.20
2022-10-20T17:56:32.020Z,17.30
2022-10-20T17:59:02.984Z,17.40
2022-10-20T18:01:33.380Z,17.40
2022-10-20T18:04:10.959Z,17.50
2022-10-20T18:06:38.882Z,17.60
2022-10-20T18:09:12.425Z,17.60
2022-10-20T18:11:44.228Z,17.70
2022-10-20T18:14:11.234Z,17.80
2022-10-20T18:16:40.578Z,17.80
2022-10-20T18:19:09.094Z,17.90
2022-10-20T18:21:36.091Z,18.00
2022-10-20T18:24:07.238Z,18.00
2022-10-20T18:26:37.137Z,18.10
2022-10-20T18:29:07.720Z,18.20
2022-10-20T18:31:36.516Z,18.30
2022-10-20T18:34:07.809Z,18.30
2022-10-20T18:36:40.369Z,18.30
2022-10-20T18:39:10.830Z,18.20
2022-10-20T18:41:40.305Z,18.20
2022-10-20T18:44:18.283Z,18.10
2022-10-20T18:46:46.811Z,18.20
2022-10-20T18:49:16.398Z,18.10
2022-10-20T18:51:46.982Z,18.10
2022-10-20T18:54:14.946Z,18.10
2022-10-20T18:56:42.961Z,18.20
2022-10-20T18:59:13.848Z,18.20
2022-10-20T19:01:41.812Z,18.20
2022-10-20T19:04:10.749Z,18.20
2022-10-20T19:06:41.635Z,18.30
2022-10-20T19:09:14.478Z,18.30
2022-10-20T19:11:42.339Z,18.20
2022-10-20T19:14:10.498Z,18.20
2022-10-20T19:16:39.339Z,18.20
2022-10-20T19:19:08.440Z,18.10
2022-10-20T19:21:36.344Z,18.10
2022-10-20T19:24:19.875Z,18.00
2022-10-20T19:27:24.400Z,18.00
2022-10-20T19:29:44.758Z,18.00
2022-10-20T19:32:12.211Z,18.00
2022-10-20T19:34:40.720Z,17.90
2022-10-20T19:37:09.555Z,17.90
2022-10-20T19:39:40.956Z,17.90
2022-10-20T19:42:09.224Z,17.80
2022-10-20T19:44:36.524Z,17.80
2022-10-20T19:47:04.934Z,17.70
2022-10-20T19:49:31.995Z,17.70
2022-10-20T19:51:59.140Z,17.60
2022-10-20T19:54:26.252Z,17.50
2022-10-20T19:56:53.284Z,17.50
2022-10-20T19:59:20.655Z,17.50
2022-10-20T20:01:49.654Z,17.40
2022-10-20T20:04:16.588Z,17.40
2022-10-20T20:06:43.535Z,17.40
2022-10-20T20:09:12.207Z,17.50
2022-10-20T20:11:40.051Z,17.50
2022-10-20T20:14:14.871Z,17.40
2022-10-20T20:16:59.222Z,17.40
2022-10-20T20:19:26.274Z,17.50
2022-10-20T20:21:53.772Z,17.50
2022-10-20T20:24:20.840Z,17.40
2022-10-20T20:26:48.048Z,17.40
2022-10-20T20:29:15.292Z,17.40
2022-10-20T20:31:42.276Z,17.30
2022-10-20T20:34:09.212Z,17.30
2022-10-20T20:36:36.198Z,17.30
2022-10-20T20:39:03.410Z,17.20
2022-10-20T20:41:31.273Z,17.20
2022-10-20T20:43:59.700Z,17.20
2022-10-20T20:46:30.978Z,17.20
2022-10-20T20:48:58.375Z,17.20
2022-10-20T20:51:26.092Z,17.20
2022-10-20T20:53:53.020Z,17.20
2022-10-20T20:56:21.977Z,17.30
2022-10-20T20:58:54.926Z,17.30
2022-10-20T21:01:27.582Z,17.40
2022-10-20T21:04:04.590Z,17.40
2022-10-20T21:06:49.506Z,17.50
2022-10-20T21:09:19.915Z,17.50
2022-10-20T21:11:48.844Z,17.50
2022-10-20T21:14:15.828Z,17.60
2022-10-20T21:16:42.756Z,17.60
2022-10-20T21:19:10.617Z,17.60
2022-10-20T21:21:43.605Z,17.50
2022-10-20T21:24:12.751Z,17.40
2022-10-20T21:26:39.948Z,17.30
2022-10-20T21:29:06.991Z,17.10
2022-10-20T21:31:33.930Z,16.90
2022-10-20T21:34:04.249Z,16.80
2022-10-20T21:36:37.763Z,16.60
2022-10-20T21:39:08.654Z,16.50
2022-10-20T21:41:36.408Z,16.40
2022-10-20T21:44:06.359Z,16.20
2022-10-20T21:46:40.288Z,16.10
2022-10-20T21:49:11.107Z,16.10
2022-10-20T21:51:45.770Z,16.00
2022-10-20T21:56:52.391Z,15.90
2022-10-20T21:59:25.821Z,16.00
2022-10-20T22:01:56.161Z,16.00
2022-10-20T22:04:27.040Z,16.10
2022-10-20T22:06:55.249Z,16.10
2022-10-20T22:09:22.702Z,16.20
2022-10-20T22:11:55.080Z,16.30
2022-10-20T22:14:23.055Z,16.30
2022-10-20T22:16:50.033Z,16.30
2022-10-20T22:19:20.796Z,16.30
2022-10-20T22:21:50.806Z,16.40
2022-10-20T22:24:18.765Z,16.40
2022-10-20T22:26:46.529Z,16.40
2022-10-20T22:29:13.653Z,16.50
2022-10-20T22:31:41.430Z,16.50
2022-10-20T22:34:09.317Z,16.50
2022-10-20T22:36:36.960Z,16.60
2022-10-20T22:39:05.413Z,16.70
2022-10-20T22:41:32.544Z,16.80
2022-10-20T22:43:59.439Z,16.80
2022-10-20T22:46:26.579Z,16.90
2022-10-20T22:48:53.754Z,16.90
2022-10-20T22:51:20.693Z,16.90
2022-10-20T22:53:47.604Z,17.00
2022-10-20T22:56:19.188Z,17.00
2022-10-20T22:58:47.696Z,17.00
2022-10-20T23:01:18.937Z,17.00
2022-10-20T23:03:46.807Z,17.00
2022-10-20T23:06:21.093Z,17.10
2022-10-20T23:08:51.599Z,17.00
2022-10-20T23:11:20.294Z,17.00
2022-10-20T23:13:48.177Z,17.00
2022-10-20T23:16:15.363Z,16.90
2022-10-20T23:18:42.561Z,16.90
2022-10-20T23:21:09.739Z,16.90
2022-10-20T23:23:37.993Z,17.00
2022-10-20T23:26:08.315Z,16.90
2022-10-20T23:28:36.763Z,16.90
2022-10-20T23:31:13.993Z,16.80
2022-10-20T23:33:43.359Z,16.80
2022-10-20T23:36:12.512Z,16.70
2022-10-20T23:38:39.429Z,16.70
2022-10-20T23:41:06.660Z,16.70
2022-10-20T23:43:34.277Z,16.70
2022-10-20T23:46:01.199Z,16.60
2022-10-20T23:48:28.527Z,16.60
2022-10-20T23:50:56.127Z,16.50
2022-10-20T23:53:23.331Z,16.40
2022-10-20T23:55:50.230Z,16.40
2022-10-20T23:58:21.925Z,16.30
